createdAt,value
2017-11-08T00:00:42.692Z,35.22
2017-11-08T00:03:11.239Z,35.28
2017-11-08T00:05:40.079Z,36.78
2017-11-08T00:08:09.711Z,37.83
2017-11-08T00:10:38.559Z,34.42
2017-11-08T00:13:07.413Z,37.95
2017-11-08T00:15:36.246Z,34.92
2017-11-08T00:18:05.091Z,35.00
2017-11-08T00:20:33.946Z,37.10
2017-11-08T00:23:03.553Z,35.17
2017-11-08T00:25:33.165Z,33.22
2017-11-08T00:28:02.777Z,29.65
2017-11-08T00:30:31.622Z,34.75
2017-11-08T00:33:00.302Z,31.87
2017-11-08T00:35:28.976Z,35.92
2017-11-08T00:37:58.593Z,32.33
2017-11-08T00:40:27.435Z,35.40
2017-11-08T00:42:57.039Z,36.53
2017-11-08T00:45:25.876Z,33.33
2017-11-08T00:47:54.722Z,33.55
2017-11-08T00:50:24.334Z,28.02
2017-11-08T00:52:53.952Z,33.75
2017-11-08T00:55:23.572Z,32.70
2017-11-08T00:57:53.342Z,33.80
2017-11-08T01:00:22.183Z,34.55
2017-11-08T01:02:51.022Z,33.80
2017-11-08T01:05:19.876Z,32.88
2017-11-08T01:07:48.722Z,34.67
2017-11-08T01:10:18.340Z,32.85
2017-11-08T01:12:48.072Z,33.70
2017-11-08T01:15:16.909Z,33.10
2017-11-08T01:17:45.748Z,34.08
2017-11-08T01:20:14.608Z,34.67
2017-11-08T01:22:43.708Z,34.67
2017-11-08T01:25:12.538Z,32.40
2017-11-08T01:27:41.382Z,32.75
2017-11-08T01:30:09.903Z,33.17
2017-11-08T01:32:38.780Z,33.55
2017-11-08T01:35:08.434Z,34.28
2017-11-08T01:37:40.189Z,34.05
2017-11-08T01:40:09.885Z,31.27
2017-11-08T01:42:38.962Z,31.80
2017-11-08T01:45:07.804Z,33.00
2017-11-08T01:47:36.702Z,33.85
2017-11-08T01:50:05.543Z,33.00
2017-11-08T01:52:34.381Z,33.90
2017-11-08T01:55:02.902Z,34.28
2017-11-08T01:57:31.098Z,31.75
2017-11-08T01:59:59.301Z,32.75
2017-11-08T02:02:28.244Z,34.50
2017-11-08T02:04:57.870Z,34.38
2017-11-08T02:07:26.720Z,37.72
2017-11-08T02:09:56.180Z,32.80
2017-11-08T02:12:25.150Z,34.22
2017-11-08T02:14:54.002Z,35.63
2017-11-08T02:17:22.851Z,31.87
2017-11-08T02:19:51.825Z,34.35
2017-11-08T02:22:21.464Z,34.28
2017-11-08T02:24:49.992Z,34.13
2017-11-08T02:27:18.879Z,33.22
2017-11-08T02:29:47.765Z,32.22
2017-11-08T02:32:17.146Z,30.30
2017-11-08T02:34:45.331Z,31.70
2017-11-08T02:37:14.188Z,33.38
2017-11-08T02:39:43.091Z,31.10
2017-11-08T02:42:11.956Z,31.55
2017-11-08T02:44:40.495Z,32.92
2017-11-08T02:47:09.355Z,31.00
2017-11-08T02:49:38.191Z,30.62
2017-11-08T02:52:07.815Z,31.20
2017-11-08T02:54:40.409Z,29.83
2017-11-08T02:57:09.270Z,28.85
2017-11-08T02:59:40.806Z,27.73
2017-11-08T03:02:12.206Z,26.52
2017-11-08T03:04:46.937Z,25.55
2017-11-08T03:07:15.801Z,28.67
2017-11-08T03:09:45.410Z,26.73
2017-11-08T03:12:15.103Z,27.42
2017-11-08T03:14:43.959Z,28.30
2017-11-08T03:17:12.814Z,31.00
2017-11-08T03:19:42.424Z,30.77
2017-11-08T03:22:11.268Z,28.48
2017-11-08T03:24:40.136Z,28.60
2017-11-08T03:27:08.979Z,28.38
2017-11-08T03:29:38.614Z,27.83
2017-11-08T03:32:07.467Z,29.75
2017-11-08T03:34:36.357Z,28.65
2017-11-08T03:37:04.533Z,29.42
2017-11-08T03:39:33.391Z,28.95
2017-11-08T03:42:02.239Z,29.12
2017-11-08T03:44:31.852Z,30.70
2017-11-08T03:47:00.706Z,27.77
2017-11-08T03:49:29.387Z,28.60
2017-11-08T03:51:59.179Z,28.90
2017-11-08T03:54:28.026Z,28.20
2017-11-08T03:56:57.651Z,27.75
2017-11-08T03:59:26.495Z,26.10
2017-11-08T04:01:55.349Z,29.33
2017-11-08T04:04:24.205Z,27.33
2017-11-08T04:06:53.837Z,25.45
2017-11-08T04:09:22.689Z,30.92
2017-11-08T04:11:51.529Z,23.12
2017-11-08T04:14:20.379Z,26.98
2017-11-08T04:16:51.026Z,26.60
2017-11-08T04:19:20.626Z,26.05
2017-11-08T04:21:50.264Z,26.23
2017-11-08T04:24:19.120Z,26.87
2017-11-08T04:26:48.748Z,25.12
2017-11-08T04:29:17.599Z,25.40
2017-11-08T04:31:46.615Z,26.00
2017-11-08T04:34:16.227Z,26.23
2017-11-08T04:36:45.835Z,23.85
2017-11-08T04:39:15.447Z,26.37
2017-11-08T04:41:45.071Z,26.73
2017-11-08T04:44:13.922Z,28.30
2017-11-08T04:46:42.473Z,29.90
2017-11-08T04:49:11.339Z,27.75
2017-11-08T04:51:40.179Z,27.30
2017-11-08T04:54:09.036Z,29.37
2017-11-08T04:56:37.894Z,28.23
2017-11-08T04:59:07.510Z,30.05
2017-11-08T05:01:37.118Z,32.20
2017-11-08T05:04:06.738Z,26.95
2017-11-08T05:06:35.612Z,32.03
2017-11-08T05:09:04.650Z,31.75
2017-11-08T05:11:33.496Z,30.25
2017-11-08T05:14:03.118Z,33.25
2017-11-08T05:16:31.959Z,30.60
2017-11-08T05:19:00.819Z,29.55
2017-11-08T05:21:29.666Z,32.50
2017-11-08T05:23:58.514Z,30.67
2017-11-08T05:26:27.368Z,31.55
2017-11-08T05:28:56.210Z,31.12
2017-11-08T05:31:25.672Z,35.22
2017-11-08T05:33:54.524Z,32.03
2017-11-08T05:36:23.380Z,29.83
2017-11-08T05:38:52.235Z,31.98
2017-11-08T05:41:21.089Z,33.97
2017-11-08T05:43:50.003Z,32.70
2017-11-08T05:46:19.299Z,30.23
2017-11-08T05:48:48.928Z,32.13
2017-11-08T05:51:17.443Z,31.42
2017-11-08T05:53:46.285Z,33.78
2017-11-08T05:56:15.903Z,31.40
2017-11-08T05:58:45.525Z,33.45
2017-11-08T06:01:14.384Z,31.33
2017-11-08T06:03:44.215Z,29.50
2017-11-08T06:06:13.827Z,32.63
2017-11-08T06:08:43.440Z,31.30
2017-11-08T06:11:13.064Z,32.60
2017-11-08T06:13:41.930Z,30.88
2017-11-08T06:16:11.535Z,32.92
2017-11-08T06:18:41.141Z,33.42
2017-11-08T06:21:10.002Z,34.20
2017-11-08T06:23:38.709Z,34.08
2017-11-08T06:26:07.378Z,34.88
2017-11-08T06:28:36.235Z,36.03
2017-11-08T06:31:05.877Z,35.25
2017-11-08T06:33:34.730Z,40.35
2017-11-08T06:36:04.527Z,36.90
2017-11-08T06:38:34.135Z,34.28
2017-11-08T06:41:03.754Z,34.28
2017-11-08T06:43:32.628Z,37.30
2017-11-08T06:46:02.259Z,37.00
2017-11-08T06:48:31.117Z,37.53
2017-11-08T06:51:00.740Z,37.10
2017-11-08T06:53:33.203Z,39.78
2017-11-08T06:56:08.773Z,38.00
2017-11-08T06:58:37.619Z,38.33
2017-11-08T07:01:06.876Z,35.45
2017-11-08T07:03:35.735Z,40.88
2017-11-08T07:06:04.686Z,38.30
2017-11-08T07:08:33.564Z,39.08
2017-11-08T07:11:02.436Z,40.67
2017-11-08T07:13:31.286Z,39.67
2017-11-08T07:16:00.130Z,42.05
2017-11-08T07:18:28.995Z,39.50
2017-11-08T07:20:59.520Z,40.10
2017-11-08T07:23:29.144Z,37.33
2017-11-08T07:25:58.013Z,39.97
2017-11-08T07:28:27.648Z,41.88
2017-11-08T07:30:56.503Z,38.97
2017-11-08T07:33:25.599Z,35.20
2017-11-08T07:35:54.446Z,35.80
2017-11-08T07:38:23.295Z,35.40
2017-11-08T07:40:52.894Z,34.22
2017-11-08T07:43:23.682Z,34.42
2017-11-08T07:45:52.919Z,33.53
2017-11-08T07:48:21.774Z,35.05
2017-11-08T07:50:51.225Z,34.40
2017-11-08T07:53:20.847Z,32.85
2017-11-08T07:55:56.020Z,34.78
2017-11-08T07:58:24.866Z,33.72
2017-11-08T08:00:54.885Z,31.73
2017-11-08T08:03:23.731Z,32.42
2017-11-08T08:05:52.893Z,33.80
2017-11-08T08:08:21.736Z,34.03
2017-11-08T08:10:50.587Z,33.50
2017-11-08T08:13:19.446Z,34.10
2017-11-08T08:15:49.067Z,31.02
2017-11-08T08:18:18.672Z,34.50
2017-11-08T08:20:48.278Z,34.17
2017-11-08T08:23:17.122Z,35.10
2017-11-08T08:25:47.799Z,35.28
2017-11-08T08:28:17.418Z,36.25
2017-11-08T08:30:47.018Z,35.35
2017-11-08T08:33:16.642Z,36.10
2017-11-08T08:35:45.488Z,36.13
2017-11-08T08:38:14.336Z,36.22
2017-11-08T08:40:43.171Z,36.95
2017-11-08T08:43:12.027Z,38.30
2017-11-08T08:45:40.901Z,39.08
2017-11-08T08:48:10.376Z,36.17
2017-11-08T08:50:40.013Z,39.40
2017-11-08T08:53:09.854Z,36.70
2017-11-08T08:55:38.933Z,37.03
2017-11-08T08:58:08.250Z,33.85
2017-11-08T09:00:37.106Z,35.00
2017-11-08T09:03:05.964Z,36.03
2017-11-08T09:05:35.268Z,34.00
2017-11-08T09:08:04.118Z,35.55
2017-11-08T09:10:38.017Z,35.38
2017-11-08T09:13:07.166Z,33.97
2017-11-08T09:15:35.851Z,33.25
2017-11-08T09:18:04.727Z,33.00
2017-11-08T09:20:34.165Z,35.00
2017-11-08T09:23:03.778Z,32.80
2017-11-08T09:25:33.400Z,31.62
2017-11-08T09:28:02.543Z,35.13
2017-11-08T09:30:31.255Z,31.77
2017-11-08T09:33:00.113Z,31.42
2017-11-08T09:35:30.205Z,33.30
2017-11-08T09:38:04.527Z,32.17
2017-11-08T09:40:43.835Z,33.45
2017-11-08T09:43:12.799Z,31.95
2017-11-08T09:45:41.689Z,31.30
2017-11-08T09:48:10.559Z,33.25
2017-11-08T09:50:39.409Z,31.20
2017-11-08T09:53:08.942Z,32.70
2017-11-08T09:55:37.882Z,33.25
2017-11-08T09:58:10.015Z,33.28
2017-11-08T10:00:41.068Z,31.77
2017-11-08T10:03:09.957Z,32.95
2017-11-08T10:05:38.812Z,32.38
2017-11-08T10:08:10.517Z,32.10
2017-11-08T10:10:39.376Z,30.48
2017-11-08T10:13:11.085Z,31.50
2017-11-08T10:15:40.328Z,29.20
2017-11-08T10:18:09.181Z,30.95
2017-11-08T10:20:38.205Z,29.50
2017-11-08T10:23:07.526Z,26.85
2017-11-08T10:25:36.358Z,26.77
2017-11-08T10:28:06.984Z,28.77
2017-11-08T10:30:36.342Z,27.98
2017-11-08T10:33:05.190Z,25.25
2017-11-08T10:35:34.855Z,23.75
2017-11-08T10:38:04.626Z,25.65
2017-11-08T10:40:33.468Z,25.33
2017-11-08T10:43:02.289Z,25.00
2017-11-08T10:45:35.980Z,26.75
2017-11-08T10:48:05.784Z,25.45
2017-11-08T10:50:35.400Z,25.70
2017-11-08T10:53:03.948Z,22.83
2017-11-08T10:55:32.790Z,23.73
2017-11-08T10:58:01.491Z,24.27
2017-11-08T11:00:35.192Z,24.40
2017-11-08T11:03:06.676Z,22.90
2017-11-08T11:05:34.887Z,25.10
2017-11-08T11:08:05.313Z,25.17
2017-11-08T11:10:34.934Z,26.00
2017-11-08T11:13:03.719Z,26.00
2017-11-08T11:15:32.700Z,24.40
2017-11-08T11:18:00.892Z,25.10
2017-11-08T11:20:30.575Z,27.87
2017-11-08T11:22:58.772Z,24.98
2017-11-08T11:25:28.013Z,23.87
2017-11-08T11:27:56.125Z,25.12
2017-11-08T11:30:27.372Z,24.25
2017-11-08T11:32:56.361Z,24.02
2017-11-08T11:35:25.821Z,23.75
2017-11-08T11:37:54.405Z,23.58
2017-11-08T11:40:23.280Z,22.52
2017-11-08T11:42:52.949Z,23.58
2017-11-08T11:45:21.515Z,24.10
2017-11-08T11:47:50.057Z,23.95
2017-11-08T11:50:19.994Z,23.02
2017-11-08T11:52:49.169Z,23.87
2017-11-08T11:55:18.016Z,25.40
2017-11-08T11:57:46.903Z,24.12
2017-11-08T12:00:15.145Z,25.30
2017-11-08T12:02:43.349Z,24.55
2017-11-08T12:05:11.588Z,20.70
2017-11-08T12:07:40.612Z,21.48
2017-11-08T12:10:09.942Z,24.35
2017-11-08T12:12:38.134Z,22.27
2017-11-08T12:15:06.338Z,21.75
2017-11-08T12:17:35.292Z,24.40
2017-11-08T12:20:03.502Z,25.30
2017-11-08T12:22:33.312Z,23.25
2017-11-08T12:25:02.666Z,24.12
2017-11-08T12:27:31.849Z,24.50
2017-11-08T12:30:00.283Z,24.15
2017-11-08T12:32:29.253Z,23.60
2017-11-08T12:34:59.364Z,24.70
2017-11-08T12:37:27.568Z,22.85
2017-11-08T12:39:56.780Z,22.27
2017-11-08T12:42:26.636Z,21.73
2017-11-08T12:44:57.571Z,24.35
2017-11-08T12:47:28.881Z,23.08
2017-11-08T12:49:58.549Z,21.42
2017-11-08T12:52:26.785Z,23.75
2017-11-08T12:54:56.116Z,25.48
2017-11-08T12:57:25.241Z,22.60
2017-11-08T12:59:53.480Z,24.60
2017-11-08T13:02:21.664Z,25.95
2017-11-08T13:04:49.859Z,29.48
2017-11-08T13:07:18.444Z,30.45
2017-11-08T13:09:47.010Z,31.12
2017-11-08T13:12:15.552Z,33.60
2017-11-08T13:14:43.744Z,34.83
2017-11-08T13:17:12.533Z,39.72
2017-11-08T13:19:42.016Z,38.05
2017-11-08T13:22:11.004Z,38.97
2017-11-08T13:24:39.900Z,37.75
2017-11-08T13:27:08.118Z,38.67
2017-11-08T13:29:36.655Z,39.72
2017-11-08T13:32:05.203Z,39.42
2017-11-08T13:34:33.412Z,42.60
2017-11-08T13:37:01.964Z,40.78
2017-11-08T13:39:30.847Z,39.60
2017-11-08T13:42:00.192Z,41.60
2017-11-08T13:44:28.738Z,41.88
2017-11-08T13:46:57.653Z,40.78
2017-11-08T13:49:26.729Z,39.85
2017-11-08T13:51:55.622Z,41.10
2017-11-08T13:54:25.519Z,40.30
2017-11-08T13:56:54.071Z,42.33
2017-11-08T13:59:24.143Z,42.20
2017-11-08T14:01:52.344Z,39.15
2017-11-08T14:04:20.541Z,38.40
2017-11-08T14:07:00.743Z,42.13
2017-11-08T14:09:30.395Z,37.03
2017-11-08T14:11:59.816Z,36.55
2017-11-08T14:14:29.305Z,38.33
2017-11-08T14:16:58.412Z,38.40
2017-11-08T14:19:27.391Z,39.35
2017-11-08T14:21:56.266Z,36.13
2017-11-08T14:24:25.128Z,38.03
2017-11-08T14:26:54.000Z,40.88
2017-11-08T14:29:23.633Z,41.92
2017-11-08T14:31:54.361Z,41.30
2017-11-08T14:34:23.224Z,40.33
2017-11-08T14:36:52.849Z,43.15
2017-11-08T14:39:22.485Z,42.15
2017-11-08T14:41:51.181Z,45.55
2017-11-08T14:44:20.045Z,45.35
2017-11-08T14:46:48.888Z,46.35
2017-11-08T14:49:17.807Z,47.53
2017-11-08T14:51:50.064Z,48.17
2017-11-08T14:54:18.942Z,48.05
2017-11-08T14:56:47.808Z,45.28
2017-11-08T14:59:17.556Z,45.42
2017-11-08T15:01:47.915Z,48.75
2017-11-08T15:04:16.799Z,46.53
2017-11-08T15:06:46.099Z,47.42
2017-11-08T15:09:16.843Z,47.65
2017-11-08T15:11:47.911Z,48.15
2017-11-08T15:14:26.685Z,49.70
2017-11-08T15:16:57.149Z,50.50
2017-11-08T15:19:29.496Z,49.15
2017-11-08T15:21:59.158Z,49.80
2017-11-08T15:24:28.067Z,50.28
2017-11-08T15:26:57.426Z,49.63
2017-11-08T15:29:26.282Z,49.22
2017-11-08T15:31:55.131Z,51.20
2017-11-08T15:34:26.608Z,52.70
2017-11-08T15:36:59.869Z,50.08
2017-11-08T15:39:28.777Z,49.90
2017-11-08T15:42:00.652Z,52.17
2017-11-08T15:44:29.582Z,50.38
2017-11-08T15:46:59.394Z,48.03
2017-11-08T15:49:29.050Z,49.72
2017-11-08T15:51:57.941Z,49.63
2017-11-08T15:54:27.152Z,50.28
2017-11-08T15:56:56.023Z,56.65
2017-11-08T15:59:25.330Z,54.95
2017-11-08T16:01:58.067Z,55.50
2017-11-08T16:04:27.855Z,56.40
2017-11-08T16:06:57.653Z,56.60
2017-11-08T16:09:27.926Z,56.55
2017-11-08T16:11:56.860Z,56.70
2017-11-08T16:14:26.467Z,56.53
2017-11-08T17:00:37.054Z,57.58
2017-11-08T17:03:05.744Z,63.40
2017-11-08T17:05:35.448Z,66.75
2017-11-08T17:08:04.307Z,66.18
2017-11-08T17:10:33.163Z,66.43
2017-11-08T17:13:02.799Z,67.43
2017-11-08T17:15:33.435Z,69.20
2017-11-08T17:18:03.292Z,64.30
2017-11-08T17:20:32.143Z,66.85
2017-11-08T17:23:01.016Z,68.85
2017-11-08T17:25:30.641Z,65.85
2017-11-08T17:27:59.493Z,65.82
2017-11-08T17:30:28.882Z,67.25
2017-11-08T17:32:57.767Z,69.90
2017-11-08T17:35:26.627Z,67.25
2017-11-08T17:37:55.485Z,68.50
2017-11-08T17:40:25.114Z,70.75
2017-11-08T17:42:53.984Z,67.47
2017-11-08T17:45:23.722Z,72.45
2017-11-08T17:47:52.597Z,71.05
2017-11-08T17:50:22.285Z,69.45
2017-11-08T17:52:51.149Z,71.78
2017-11-08T17:55:20.018Z,68.82
2017-11-08T17:57:48.875Z,70.10
2017-11-08T18:00:18.548Z,67.25
2017-11-08T18:02:47.423Z,62.15
2017-11-08T18:05:16.274Z,54.92
2017-11-08T18:07:45.143Z,61.20
2017-11-08T18:10:15.707Z,62.42
2017-11-08T18:12:44.573Z,62.08
2017-11-08T18:15:14.212Z,61.83
2017-11-08T18:17:43.942Z,68.15
2017-11-08T18:20:12.816Z,72.37
2017-11-08T18:22:42.470Z,72.40
2017-11-08T18:25:12.113Z,68.32
2017-11-08T18:27:41.728Z,73.62
2017-11-08T18:30:10.622Z,70.05
2017-11-08T18:32:39.489Z,71.90
2017-11-08T18:35:09.130Z,66.85
2017-11-08T18:37:37.735Z,72.20
2017-11-08T18:40:06.595Z,72.50
2017-11-08T18:42:35.456Z,69.37
2017-11-08T18:45:04.015Z,71.80
2017-11-08T18:47:32.901Z,70.40
2017-11-08T18:50:01.775Z,72.75
2017-11-08T18:52:31.094Z,68.82
2017-11-08T18:55:00.704Z,66.55
2017-11-08T18:57:30.514Z,67.95
2017-11-08T18:59:59.372Z,67.22
2017-11-08T19:02:28.264Z,67.12
2017-11-08T19:04:56.819Z,74.62
2017-11-08T19:07:26.466Z,71.85
2017-11-08T19:09:55.364Z,70.00
2017-11-08T19:12:24.312Z,68.53
2017-11-08T19:14:53.941Z,72.35
2017-11-08T19:17:22.651Z,76.50
2017-11-08T19:19:52.618Z,67.35
2017-11-08T19:22:22.259Z,70.43
2017-11-08T19:24:51.126Z,66.62
2017-11-08T19:27:20.009Z,73.40
2017-11-08T19:29:48.698Z,71.57
2017-11-08T19:32:17.632Z,66.72
2017-11-08T19:34:46.502Z,76.10
2017-11-08T19:37:15.455Z,67.70
2017-11-08T19:39:44.331Z,70.15
2017-11-08T19:42:13.216Z,71.53
2017-11-08T19:44:42.071Z,71.55
2017-11-08T19:47:11.803Z,76.00
2017-11-08T19:49:40.653Z,67.55
2017-11-08T19:52:10.282Z,71.15
2017-11-08T19:54:39.913Z,65.22
2017-11-08T19:57:08.783Z,68.32
2017-11-08T19:59:38.449Z,69.55
2017-11-08T20:02:07.320Z,71.22
2017-11-08T20:04:36.194Z,71.10
2017-11-08T20:07:05.077Z,68.68
2017-11-08T20:09:33.964Z,67.15
2017-11-08T20:12:02.843Z,65.25
2017-11-08T20:14:32.518Z,70.82
2017-11-08T20:17:01.381Z,65.32
2017-11-08T20:19:30.248Z,70.32
2017-11-08T20:21:59.114Z,72.28
2017-11-08T20:24:27.983Z,64.95
2017-11-08T20:26:57.035Z,69.47
2017-11-08T20:29:25.905Z,65.45
2017-11-08T20:31:55.712Z,69.28
2017-11-08T20:34:25.365Z,68.07
2017-11-08T20:36:54.236Z,70.50
2017-11-08T20:39:23.667Z,71.10
2017-11-08T20:41:52.552Z,65.47
2017-11-08T20:44:21.883Z,65.15
2017-11-08T20:46:50.752Z,67.70
2017-11-08T20:49:19.723Z,69.40
2017-11-08T20:51:49.564Z,66.35
2017-11-08T20:54:18.458Z,68.75
2017-11-08T20:56:47.332Z,66.25
2017-11-08T20:59:16.188Z,65.28
2017-11-08T21:01:45.840Z,65.43
2017-11-08T21:04:14.719Z,67.18
2017-11-08T21:06:43.568Z,68.60
2017-11-08T21:09:13.213Z,66.57
2017-11-08T21:11:42.125Z,69.10
2017-11-08T21:14:11.446Z,70.35
2017-11-08T21:16:40.326Z,70.78
2017-11-08T21:19:10.041Z,68.85
2017-11-08T21:21:38.933Z,68.78
2017-11-08T21:24:07.825Z,69.00
2017-11-08T21:26:36.715Z,68.85
2017-11-08T21:29:05.608Z,69.68
2017-11-08T21:31:34.422Z,66.28
2017-11-08T21:34:03.276Z,68.70
2017-11-08T21:36:33.509Z,72.15
2017-11-08T21:39:02.372Z,72.22
2017-11-08T21:41:31.242Z,70.93
2017-11-08T21:44:00.872Z,65.25
2017-11-08T21:46:29.761Z,72.05
2017-11-08T21:48:58.636Z,72.05
2017-11-08T21:51:27.495Z,72.53
2017-11-08T21:53:56.348Z,71.62
2017-11-08T21:56:25.214Z,69.70
2017-11-08T21:58:54.071Z,73.85
2017-11-08T22:01:22.919Z,69.30
2017-11-08T22:03:51.775Z,76.85
2017-11-08T22:06:20.640Z,71.60
2017-11-08T22:08:49.497Z,69.40
2017-11-08T22:11:18.355Z,69.95
2017-11-08T22:13:47.220Z,71.00
2017-11-08T22:16:16.858Z,70.10
2017-11-08T22:18:46.527Z,70.15
2017-11-08T22:21:15.431Z,73.15
2017-11-08T22:23:45.777Z,70.18
2017-11-08T22:26:16.544Z,72.28
2017-11-08T22:28:45.444Z,71.85
2017-11-08T22:31:14.323Z,70.95
2017-11-08T22:33:43.222Z,66.87
2017-11-08T22:36:12.192Z,73.32
2017-11-08T22:38:43.697Z,70.15
2017-11-08T22:41:13.153Z,72.37
2017-11-08T22:43:42.028Z,71.60
2017-11-08T22:46:11.657Z,66.93
2017-11-08T22:48:40.508Z,75.43
2017-11-08T22:51:09.364Z,67.85
2017-11-08T22:53:38.233Z,70.28
2017-11-08T22:56:07.087Z,73.65
2017-11-08T22:58:35.933Z,71.15
2017-11-08T23:01:04.460Z,74.25
2017-11-08T23:03:33.313Z,69.20
2017-11-08T23:06:02.168Z,72.60
2017-11-08T23:08:31.784Z,70.20
2017-11-08T23:11:00.642Z,69.62
2017-11-08T23:13:29.517Z,69.12
2017-11-08T23:16:01.116Z,67.75
2017-11-08T23:18:29.967Z,71.45
2017-11-08T23:20:58.830Z,74.03
2017-11-08T23:23:28.713Z,68.97
2017-11-08T23:25:58.335Z,73.30
2017-11-08T23:28:27.191Z,74.62
2017-11-08T23:30:55.886Z,71.12
2017-11-08T23:33:25.504Z,64.35
2017-11-08T23:35:54.188Z,73.22
2017-11-08T23:38:23.047Z,70.15
2017-11-08T23:40:51.413Z,70.53
2017-11-08T23:43:20.278Z,70.43
2017-11-08T23:45:49.132Z,69.47
2017-11-08T23:48:18.743Z,67.68
2017-11-08T23:50:50.103Z,72.35
2017-11-08T23:53:18.959Z,68.45
2017-11-08T23:55:47.842Z,68.75
2017-11-08T23:58:16.853Z,67.68
